sensor_id;sensor_type;location;lat;lon;timestamp;P1;durP1;ratioP1;P2;durP2;ratioP2
870;SDS011;422;51.280;7.236;2023-02-12T00:02:14;85.13;;;47.03;;
870;SDS011;422;51.280;7.236;2023-02-12T00:04:42;83.27;;;49.00;;
870;SDS011;422;51.280;7.236;2023-02-12T00:07:10;77.90;;;45.60;;
870;SDS011;422;51.280;7.236;2023-02-12T00:09:38;76.57;;;44.97;;
870;SDS011;422;51.280;7.236;2023-02-12T00:12:05;86.60;;;46.33;;
870;SDS011;422;51.280;7.236;2023-02-12T00:14:33;76.10;;;43.90;;
870;SDS011;422;51.280;7.236;2023-02-12T00:17:02;73.23;;;42.67;;
870;SDS011;422;51.280;7.236;2023-02-12T00:19:29;80.40;;;43.67;;
870;SDS011;422;51.280;7.236;2023-02-12T00:21:56;78.17;;;43.00;;
870;SDS011;422;51.280;7.236;2023-02-12T00:24:25;76.97;;;44.27;;
870;SDS011;422;51.280;7.236;2023-02-12T00:26:52;78.27;;;42.70;;
870;SDS011;422;51.280;7.236;2023-02-12T00:29:19;70.60;;;42.17;;
870;SDS011;422;51.280;7.236;2023-02-12T00:31:47;75.77;;;42.13;;
870;SDS011;422;51.280;7.236;2023-02-12T00:34:14;73.80;;;42.87;;
870;SDS011;422;51.280;7.236;2023-02-12T00:36:41;75.33;;;43.70;;
870;SDS011;422;51.280;7.236;2023-02-12T00:39:09;72.37;;;42.10;;
870;SDS011;422;51.280;7.236;2023-02-12T00:41:38;75.90;;;42.87;;
870;SDS011;422;51.280;7.236;2023-02-12T00:44:05;77.70;;;43.87;;
870;SDS011;422;51.280;7.236;2023-02-12T00:46:33;80.50;;;45.67;;
870;SDS011;422;51.280;7.236;2023-02-12T00:49:00;76.37;;;44.30;;
870;SDS011;422;51.280;7.236;2023-02-12T00:51:27;69.80;;;40.53;;
870;SDS011;422;51.280;7.236;2023-02-12T00:53:54;67.23;;;40.60;;
870;SDS011;422;51.280;7.236;2023-02-12T00:56:23;78.27;;;43.23;;
870;SDS011;422;51.280;7.236;2023-02-12T00:58:52;80.07;;;43.37;;
870;SDS011;422;51.280;7.236;2023-02-12T01:01:19;77.33;;;42.10;;
870;SDS011;422;51.280;7.236;2023-02-12T01:03:46;71.33;;;43.00;;
870;SDS011;422;51.280;7.236;2023-02-12T01:06:13;68.63;;;40.40;;
870;SDS011;422;51.280;7.236;2023-02-12T01:08:41;73.67;;;42.00;;
870;SDS011;422;51.280;7.236;2023-02-12T01:11:10;71.67;;;43.83;;
870;SDS011;422;51.280;7.236;2023-02-12T01:13:38;72.73;;;44.27;;
870;SDS011;422;51.280;7.236;2023-02-12T01:16:08;72.97;;;43.37;;
870;SDS011;422;51.280;7.236;2023-02-12T01:18:39;73.13;;;43.67;;
870;SDS011;422;51.280;7.236;2023-02-12T01:21:10;79.63;;;43.90;;
870;SDS011;422;51.280;7.236;2023-02-12T01:23:39;69.23;;;42.40;;
870;SDS011;422;51.280;7.236;2023-02-12T01:26:07;73.67;;;40.00;;
870;SDS011;422;51.280;7.236;2023-02-12T01:28:36;75.27;;;41.20;;
870;SDS011;422;51.280;7.236;2023-02-12T01:31:08;72.70;;;42.10;;
870;SDS011;422;51.280;7.236;2023-02-12T01:33:36;66.47;;;40.73;;
870;SDS011;422;51.280;7.236;2023-02-12T01:36:03;65.73;;;40.43;;
870;SDS011;422;51.280;7.236;2023-02-12T01:38:31;76.37;;;41.30;;
870;SDS011;422;51.280;7.236;2023-02-12T01:41:02;70.27;;;41.00;;
870;SDS011;422;51.280;7.236;2023-02-12T01:43:30;75.73;;;40.30;;
870;SDS011;422;51.280;7.236;2023-02-12T01:45:58;70.90;;;42.20;;
870;SDS011;422;51.280;7.236;2023-02-12T01:48:28;66.37;;;40.40;;
870;SDS011;422;51.280;7.236;2023-02-12T01:50:58;75.87;;;42.10;;
870;SDS011;422;51.280;7.236;2023-02-12T01:53:29;69.87;;;41.87;;
870;SDS011;422;51.280;7.236;2023-02-12T01:56:00;70.60;;;39.43;;
870;SDS011;422;51.280;7.236;2023-02-12T01:58:29;67.37;;;39.73;;
870;SDS011;422;51.280;7.236;2023-02-12T02:01:01;64.50;;;37.40;;
870;SDS011;422;51.280;7.236;2023-02-12T02:03:33;65.33;;;40.10;;
870;SDS011;422;51.280;7.236;2023-02-12T02:06:05;68.87;;;40.97;;
870;SDS011;422;51.280;7.236;2023-02-12T02:08:36;66.57;;;40.23;;
870;SDS011;422;51.280;7.236;2023-02-12T02:11:04;72.47;;;41.03;;
870;SDS011;422;51.280;7.236;2023-02-12T02:13:51;67.83;;;40.77;;
870;SDS011;422;51.280;7.236;2023-02-12T02:16:37;71.90;;;39.00;;
870;SDS011;422;51.280;7.236;2023-02-12T02:19:13;66.00;;;39.30;;
870;SDS011;422;51.280;7.236;2023-02-12T02:22:07;74.93;;;39.10;;
870;SDS011;422;51.280;7.236;2023-02-12T02:25:02;65.20;;;40.27;;
870;SDS011;422;51.280;7.236;2023-02-12T02:27:49;66.63;;;41.77;;
870;SDS011;422;51.280;7.236;2023-02-12T02:30:38;63.90;;;39.13;;
870;SDS011;422;51.280;7.236;2023-02-12T02:36:03;62.37;;;40.37;;
870;SDS011;422;51.280;7.236;2023-02-12T02:38:42;70.13;;;39.17;;
870;SDS011;422;51.280;7.236;2023-02-12T02:41:14;66.23;;;37.57;;
870;SDS011;422;51.280;7.236;2023-02-12T02:43:47;61.90;;;39.33;;
870;SDS011;422;51.280;7.236;2023-02-12T02:46:19;62.67;;;36.57;;
870;SDS011;422;51.280;7.236;2023-02-12T02:48:55;66.03;;;41.40;;
870;SDS011;422;51.280;7.236;2023-02-12T02:51:26;65.27;;;38.77;;
870;SDS011;422;51.280;7.236;2023-02-12T02:53:57;65.27;;;37.57;;
870;SDS011;422;51.280;7.236;2023-02-12T02:56:31;60.27;;;35.53;;
870;SDS011;422;51.280;7.236;2023-02-12T02:59:04;63.90;;;39.00;;
870;SDS011;422;51.280;7.236;2023-02-12T03:01:37;69.80;;;37.37;;
870;SDS011;422;51.280;7.236;2023-02-12T03:04:09;67.47;;;40.00;;
870;SDS011;422;51.280;7.236;2023-02-12T03:06:43;63.63;;;37.03;;
870;SDS011;422;51.280;7.236;2023-02-12T03:09:14;72.73;;;40.23;;
870;SDS011;422;51.280;7.236;2023-02-12T03:11:46;76.60;;;42.00;;
870;SDS011;422;51.280;7.236;2023-02-12T03:14:16;70.73;;;38.70;;
870;SDS011;422;51.280;7.236;2023-02-12T03:16:50;71.20;;;38.83;;
870;SDS011;422;51.280;7.236;2023-02-12T03:19:23;69.63;;;39.80;;
870;SDS011;422;51.280;7.236;2023-02-12T03:21:53;71.00;;;42.80;;
870;SDS011;422;51.280;7.236;2023-02-12T03:24:25;65.70;;;39.80;;
870;SDS011;422;51.280;7.236;2023-02-12T03:26:58;68.77;;;39.77;;
870;SDS011;422;51.280;7.236;2023-02-12T03:29:29;68.77;;;39.27;;
870;SDS011;422;51.280;7.236;2023-02-12T03:32:04;66.37;;;38.97;;
870;SDS011;422;51.280;7.236;2023-02-12T03:34:45;62.73;;;36.37;;
870;SDS011;422;51.280;7.236;2023-02-12T03:37:17;61.53;;;37.13;;
870;SDS011;422;51.280;7.236;2023-02-12T03:39:51;74.40;;;40.10;;
870;SDS011;422;51.280;7.236;2023-02-12T03:42:23;69.23;;;38.20;;
870;SDS011;422;51.280;7.236;2023-02-12T03:45:00;65.73;;;38.27;;
870;SDS011;422;51.280;7.236;2023-02-12T03:47:37;58.03;;;34.93;;
870;SDS011;422;51.280;7.236;2023-02-12T03:50:08;72.47;;;38.30;;
870;SDS011;422;51.280;7.236;2023-02-12T03:52:39;61.17;;;37.87;;
870;SDS011;422;51.280;7.236;2023-02-12T03:55:08;66.07;;;37.67;;
870;SDS011;422;51.280;7.236;2023-02-12T03:57:37;66.47;;;38.50;;
870;SDS011;422;51.280;7.236;2023-02-12T04:00:09;65.90;;;39.50;;
870;SDS011;422;51.280;7.236;2023-02-12T04:02:39;63.50;;;36.90;;
870;SDS011;422;51.280;7.236;2023-02-12T04:05:14;74.60;;;41.90;;
870;SDS011;422;51.280;7.236;2023-02-12T04:07:43;63.57;;;38.00;;
870;SDS011;422;51.280;7.236;2023-02-12T04:10:10;63.10;;;37.90;;
870;SDS011;422;51.280;7.236;2023-02-12T04:12:38;63.50;;;36.47;;
870;SDS011;422;51.280;7.236;2023-02-12T04:15:25;64.83;;;39.90;;
870;SDS011;422;51.280;7.236;2023-02-12T04:18:03;76.00;;;41.20;;
870;SDS011;422;51.280;7.236;2023-02-12T04:20:40;63.83;;;37.03;;
870;SDS011;422;51.280;7.236;2023-02-12T04:23:16;73.40;;;38.33;;
870;SDS011;422;51.280;7.236;2023-02-12T04:25:52;69.87;;;40.10;;
870;SDS011;422;51.280;7.236;2023-02-12T04:28:33;62.33;;;36.90;;
870;SDS011;422;51.280;7.236;2023-02-12T04:31:10;66.17;;;39.57;;
870;SDS011;422;51.280;7.236;2023-02-12T04:33:48;68.93;;;38.63;;
870;SDS011;422;51.280;7.236;2023-02-12T04:36:24;64.07;;;37.10;;
870;SDS011;422;51.280;7.236;2023-02-12T04:38:54;63.60;;;36.77;;
870;SDS011;422;51.280;7.236;2023-02-12T04:41:25;67.10;;;37.40;;
870;SDS011;422;51.280;7.236;2023-02-12T04:43:53;64.23;;;37.67;;
870;SDS011;422;51.280;7.236;2023-02-12T04:46:20;66.03;;;38.20;;
870;SDS011;422;51.280;7.236;2023-02-12T04:48:51;66.00;;;37.20;;
870;SDS011;422;51.280;7.236;2023-02-12T04:51:20;59.70;;;36.20;;
870;SDS011;422;51.280;7.236;2023-02-12T04:53:47;67.30;;;36.90;;
870;SDS011;422;51.280;7.236;2023-02-12T04:56:15;62.10;;;36.80;;
870;SDS011;422;51.280;7.236;2023-02-12T04:58:43;68.07;;;37.40;;
870;SDS011;422;51.280;7.236;2023-02-12T05:01:10;71.73;;;40.20;;
870;SDS011;422;51.280;7.236;2023-02-12T05:03:37;61.90;;;35.77;;
870;SDS011;422;51.280;7.236;2023-02-12T05:06:07;61.30;;;36.57;;
870;SDS011;422;51.280;7.236;2023-02-12T05:08:35;67.90;;;38.10;;
870;SDS011;422;51.280;7.236;2023-02-12T05:11:03;61.57;;;36.77;;
870;SDS011;422;51.280;7.236;2023-02-12T05:13:31;59.57;;;36.70;;
870;SDS011;422;51.280;7.236;2023-02-12T05:16:02;60.03;;;35.63;;
870;SDS011;422;51.280;7.236;2023-02-12T05:18:32;61.73;;;37.50;;
870;SDS011;422;51.280;7.236;2023-02-12T05:21:01;57.20;;;35.07;;
870;SDS011;422;51.280;7.236;2023-02-12T05:23:31;60.87;;;35.10;;
870;SDS011;422;51.280;7.236;2023-02-12T05:25:59;69.17;;;37.80;;
870;SDS011;422;51.280;7.236;2023-02-12T05:28:27;62.83;;;36.93;;
870;SDS011;422;51.280;7.236;2023-02-12T05:30:58;66.20;;;38.03;;
870;SDS011;422;51.280;7.236;2023-02-12T05:33:25;63.10;;;37.63;;
870;SDS011;422;51.280;7.236;2023-02-12T05:35:53;68.23;;;38.13;;
870;SDS011;422;51.280;7.236;2023-02-12T05:38:20;62.97;;;36.03;;
870;SDS011;422;51.280;7.236;2023-02-12T05:40:49;64.70;;;37.97;;
870;SDS011;422;51.280;7.236;2023-02-12T05:43:16;62.73;;;37.93;;
870;SDS011;422;51.280;7.236;2023-02-12T05:45:44;60.20;;;36.60;;
870;SDS011;422;51.280;7.236;2023-02-12T05:48:11;63.87;;;35.73;;
870;SDS011;422;51.280;7.236;2023-02-12T05:50:38;69.80;;;37.33;;
870;SDS011;422;51.280;7.236;2023-02-12T05:53:05;60.00;;;35.57;;
870;SDS011;422;51.280;7.236;2023-02-12T05:55:33;64.27;;;35.80;;
870;SDS011;422;51.280;7.236;2023-02-12T05:58:01;62.03;;;37.50;;
870;SDS011;422;51.280;7.236;2023-02-12T06:00:28;54.47;;;35.50;;
870;SDS011;422;51.280;7.236;2023-02-12T06:02:55;62.30;;;35.50;;
870;SDS011;422;51.280;7.236;2023-02-12T06:05:23;56.23;;;35.57;;
870;SDS011;422;51.280;7.236;2023-02-12T06:07:50;60.57;;;35.40;;
870;SDS011;422;51.280;7.236;2023-02-12T06:10:18;56.33;;;33.90;;
870;SDS011;422;51.280;7.236;2023-02-12T06:12:45;60.00;;;35.10;;
870;SDS011;422;51.280;7.236;2023-02-12T06:15:14;59.37;;;36.03;;
870;SDS011;422;51.280;7.236;2023-02-12T06:17:41;59.00;;;34.60;;
870;SDS011;422;51.280;7.236;2023-02-12T06:20:08;65.67;;;37.17;;
870;SDS011;422;51.280;7.236;2023-02-12T06:22:36;63.83;;;36.80;;
870;SDS011;422;51.280;7.236;2023-02-12T06:25:03;60.97;;;37.70;;
870;SDS011;422;51.280;7.236;2023-02-12T06:27:31;69.10;;;40.10;;
870;SDS011;422;51.280;7.236;2023-02-12T06:29:58;62.33;;;34.73;;
870;SDS011;422;51.280;7.236;2023-02-12T06:32:27;57.60;;;35.73;;
870;SDS011;422;51.280;7.236;2023-02-12T06:34:54;58.63;;;33.57;;
870;SDS011;422;51.280;7.236;2023-02-12T06:37:21;64.13;;;37.33;;
870;SDS011;422;51.280;7.236;2023-02-12T06:39:48;58.13;;;35.73;;
870;SDS011;422;51.280;7.236;2023-02-12T06:42:16;63.43;;;38.27;;
870;SDS011;422;51.280;7.236;2023-02-12T06:44:43;62.90;;;37.60;;
870;SDS011;422;51.280;7.236;2023-02-12T06:47:11;62.93;;;36.40;;
870;SDS011;422;51.280;7.236;2023-02-12T06:49:40;59.47;;;35.33;;
870;SDS011;422;51.280;7.236;2023-02-12T06:52:08;57.90;;;35.13;;
870;SDS011;422;51.280;7.236;2023-02-12T06:54:35;61.97;;;35.93;;
870;SDS011;422;51.280;7.236;2023-02-12T06:57:02;60.63;;;36.70;;
870;SDS011;422;51.280;7.236;2023-02-12T06:59:30;57.77;;;38.27;;
870;SDS011;422;51.280;7.236;2023-02-12T07:01:57;61.40;;;37.37;;
870;SDS011;422;51.280;7.236;2023-02-12T07:04:24;59.10;;;35.50;;
870;SDS011;422;51.280;7.236;2023-02-12T07:06:53;57.53;;;35.10;;
870;SDS011;422;51.280;7.236;2023-02-12T07:09:20;60.90;;;36.97;;
870;SDS011;422;51.280;7.236;2023-02-12T07:11:47;56.30;;;34.67;;
870;SDS011;422;51.280;7.236;2023-02-12T07:14:15;55.30;;;34.37;;
870;SDS011;422;51.280;7.236;2023-02-12T07:16:42;54.10;;;34.47;;
870;SDS011;422;51.280;7.236;2023-02-12T07:19:10;61.83;;;34.77;;
870;SDS011;422;51.280;7.236;2023-02-12T07:21:39;65.50;;;36.77;;
870;SDS011;422;51.280;7.236;2023-02-12T07:24:08;59.53;;;36.87;;
870;SDS011;422;51.280;7.236;2023-02-12T07:26:36;54.47;;;32.70;;
870;SDS011;422;51.280;7.236;2023-02-12T07:29:03;60.83;;;35.60;;
870;SDS011;422;51.280;7.236;2023-02-12T07:31:31;61.00;;;37.20;;
870;SDS011;422;51.280;7.236;2023-02-12T07:33:59;62.47;;;37.50;;
870;SDS011;422;51.280;7.236;2023-02-12T07:36:27;56.37;;;35.77;;
870;SDS011;422;51.280;7.236;2023-02-12T07:38:56;59.13;;;35.60;;
870;SDS011;422;51.280;7.236;2023-02-12T07:41:27;59.70;;;34.67;;
870;SDS011;422;51.280;7.236;2023-02-12T07:43:56;61.20;;;35.57;;
870;SDS011;422;51.280;7.236;2023-02-12T07:46:25;52.03;;;34.00;;
870;SDS011;422;51.280;7.236;2023-02-12T07:48:54;66.80;;;36.70;;
870;SDS011;422;51.280;7.236;2023-02-12T07:51:22;66.50;;;39.30;;
870;SDS011;422;51.280;7.236;2023-02-12T07:53:50;64.20;;;37.50;;
870;SDS011;422;51.280;7.236;2023-02-12T07:56:18;69.63;;;41.13;;
870;SDS011;422;51.280;7.236;2023-02-12T07:58:48;63.10;;;39.00;;
870;SDS011;422;51.280;7.236;2023-02-12T08:01:19;72.13;;;40.77;;
870;SDS011;422;51.280;7.236;2023-02-12T08:03:48;66.57;;;42.00;;
870;SDS011;422;51.280;7.236;2023-02-12T08:06:16;72.30;;;44.30;;
870;SDS011;422;51.280;7.236;2023-02-12T08:08:45;75.43;;;45.83;;
870;SDS011;422;51.280;7.236;2023-02-12T08:11:13;75.30;;;46.23;;
870;SDS011;422;51.280;7.236;2023-02-12T08:13:40;89.07;;;47.57;;
870;SDS011;422;51.280;7.236;2023-02-12T08:16:10;78.10;;;47.00;;
870;SDS011;422;51.280;7.236;2023-02-12T08:18:39;79.50;;;45.67;;
870;SDS011;422;51.280;7.236;2023-02-12T08:21:07;71.73;;;42.60;;
870;SDS011;422;51.280;7.236;2023-02-12T08:23:36;71.90;;;44.57;;
870;SDS011;422;51.280;7.236;2023-02-12T08:26:04;67.07;;;45.40;;
870;SDS011;422;51.280;7.236;2023-02-12T08:28:33;75.20;;;43.40;;
870;SDS011;422;51.280;7.236;2023-02-12T08:31:01;67.83;;;42.60;;
870;SDS011;422;51.280;7.236;2023-02-12T08:33:31;68.07;;;40.43;;
870;SDS011;422;51.280;7.236;2023-02-12T08:36:02;68.67;;;43.23;;
870;SDS011;422;51.280;7.236;2023-02-12T08:38:30;65.47;;;40.53;;
870;SDS011;422;51.280;7.236;2023-02-12T08:41:01;75.70;;;43.23;;
870;SDS011;422;51.280;7.236;2023-02-12T08:43:28;66.10;;;40.47;;
870;SDS011;422;51.280;7.236;2023-02-12T08:46:00;66.33;;;41.80;;
870;SDS011;422;51.280;7.236;2023-02-12T08:48:28;68.90;;;42.47;;
870;SDS011;422;51.280;7.236;2023-02-12T08:51:01;64.90;;;40.10;;
870;SDS011;422;51.280;7.236;2023-02-12T08:53:30;61.77;;;39.07;;
870;SDS011;422;51.280;7.236;2023-02-12T08:55:57;69.63;;;43.27;;
870;SDS011;422;51.280;7.236;2023-02-12T08:58:25;62.77;;;38.67;;
870;SDS011;422;51.280;7.236;2023-02-12T09:00:52;59.70;;;38.80;;
870;SDS011;422;51.280;7.236;2023-02-12T09:03:19;55.90;;;36.80;;
870;SDS011;422;51.280;7.236;2023-02-12T09:05:46;58.10;;;35.60;;
870;SDS011;422;51.280;7.236;2023-02-12T09:08:15;60.50;;;37.30;;
870;SDS011;422;51.280;7.236;2023-02-12T09:10:42;57.30;;;33.57;;
870;SDS011;422;51.280;7.236;2023-02-12T09:13:10;54.90;;;37.07;;
870;SDS011;422;51.280;7.236;2023-02-12T09:15:38;56.63;;;41.70;;
870;SDS011;422;51.280;7.236;2023-02-12T09:18:06;48.87;;;34.43;;
870;SDS011;422;51.280;7.236;2023-02-12T09:20:36;49.37;;;34.17;;
870;SDS011;422;51.280;7.236;2023-02-12T09:23:04;51.80;;;34.43;;
870;SDS011;422;51.280;7.236;2023-02-12T09:25:33;53.70;;;35.77;;
870;SDS011;422;51.280;7.236;2023-02-12T09:28:04;48.70;;;34.93;;
870;SDS011;422;51.280;7.236;2023-02-12T09:30:31;48.50;;;33.53;;
870;SDS011;422;51.280;7.236;2023-02-12T09:32:58;50.60;;;34.10;;
870;SDS011;422;51.280;7.236;2023-02-12T09:35:26;42.67;;;28.63;;
870;SDS011;422;51.280;7.236;2023-02-12T09:37:53;45.00;;;31.90;;
870;SDS011;422;51.280;7.236;2023-02-12T09:40:21;44.23;;;30.03;;
870;SDS011;422;51.280;7.236;2023-02-12T09:43:02;49.30;;;31.57;;
870;SDS011;422;51.280;7.236;2023-02-12T09:45:41;41.27;;;28.67;;
870;SDS011;422;51.280;7.236;2023-02-12T09:48:21;50.83;;;33.50;;
870;SDS011;422;51.280;7.236;2023-02-12T09:50:58;47.33;;;31.83;;
870;SDS011;422;51.280;7.236;2023-02-12T09:53:30;46.90;;;29.20;;
870;SDS011;422;51.280;7.236;2023-02-12T09:55:58;44.03;;;28.17;;
870;SDS011;422;51.280;7.236;2023-02-12T09:58:30;39.30;;;26.97;;
870;SDS011;422;51.280;7.236;2023-02-12T10:01:02;43.13;;;28.87;;
870;SDS011;422;51.280;7.236;2023-02-12T10:03:37;39.60;;;27.20;;
870;SDS011;422;51.280;7.236;2023-02-12T10:06:04;39.00;;;27.47;;
870;SDS011;422;51.280;7.236;2023-02-12T10:08:40;42.27;;;29.87;;
870;SDS011;422;51.280;7.236;2023-02-12T10:11:42;38.30;;;28.57;;
870;SDS011;422;51.280;7.236;2023-02-12T10:14:31;43.60;;;30.43;;
870;SDS011;422;51.280;7.236;2023-02-12T10:17:18;40.70;;;27.13;;
870;SDS011;422;51.280;7.236;2023-02-12T10:22:54;37.23;;;24.37;;
870;SDS011;422;51.280;7.236;2023-02-12T10:25:33;30.20;;;22.07;;
870;SDS011;422;51.280;7.236;2023-02-12T10:28:07;33.23;;;25.40;;
870;SDS011;422;51.280;7.236;2023-02-12T10:30:42;31.03;;;22.30;;
870;SDS011;422;51.280;7.236;2023-02-12T10:33:15;31.27;;;23.97;;
870;SDS011;422;51.280;7.236;2023-02-12T10:35:46;34.27;;;24.37;;
870;SDS011;422;51.280;7.236;2023-02-12T10:38:17;33.93;;;24.43;;
870;SDS011;422;51.280;7.236;2023-02-12T10:40:46;36.50;;;25.90;;
870;SDS011;422;51.280;7.236;2023-02-12T10:43:15;33.57;;;23.47;;
870;SDS011;422;51.280;7.236;2023-02-12T10:45:43;30.40;;;23.63;;
870;SDS011;422;51.280;7.236;2023-02-12T10:48:12;39.80;;;24.20;;
870;SDS011;422;51.280;7.236;2023-02-12T10:50:50;35.70;;;24.90;;
870;SDS011;422;51.280;7.236;2023-02-12T10:53:24;32.80;;;24.20;;
870;SDS011;422;51.280;7.236;2023-02-12T10:56:03;36.20;;;25.60;;
870;SDS011;422;51.280;7.236;2023-02-12T10:58:42;32.67;;;24.67;;
870;SDS011;422;51.280;7.236;2023-02-12T11:01:20;37.43;;;26.70;;
870;SDS011;422;51.280;7.236;2023-02-12T11:03:51;38.33;;;26.60;;
870;SDS011;422;51.280;7.236;2023-02-12T11:06:19;37.30;;;27.37;;
870;SDS011;422;51.280;7.236;2023-02-12T11:08:49;27.90;;;23.03;;
870;SDS011;422;51.280;7.236;2023-02-12T11:11:18;33.77;;;21.57;;
870;SDS011;422;51.280;7.236;2023-02-12T11:13:52;33.50;;;22.13;;
870;SDS011;422;51.280;7.236;2023-02-12T11:16:30;35.70;;;23.83;;
870;SDS011;422;51.280;7.236;2023-02-12T11:18:59;33.70;;;24.77;;
870;SDS011;422;51.280;7.236;2023-02-12T11:21:28;34.10;;;24.70;;
870;SDS011;422;51.280;7.236;2023-02-12T11:23:56;30.93;;;23.07;;
870;SDS011;422;51.280;7.236;2023-02-12T11:26:43;33.50;;;25.73;;
870;SDS011;422;51.280;7.236;2023-02-12T11:29:16;34.40;;;23.63;;
870;SDS011;422;51.280;7.236;2023-02-12T11:31:58;29.33;;;23.67;;
870;SDS011;422;51.280;7.236;2023-02-12T11:34:26;33.07;;;23.10;;
870;SDS011;422;51.280;7.236;2023-02-12T11:36:53;30.67;;;22.50;;
870;SDS011;422;51.280;7.236;2023-02-12T11:39:22;32.57;;;23.37;;
870;SDS011;422;51.280;7.236;2023-02-12T11:41:53;36.77;;;25.60;;
870;SDS011;422;51.280;7.236;2023-02-12T11:44:23;33.90;;;24.40;;
870;SDS011;422;51.280;7.236;2023-02-12T11:46:54;33.40;;;24.70;;
870;SDS011;422;51.280;7.236;2023-02-12T11:49:24;35.73;;;26.33;;
870;SDS011;422;51.280;7.236;2023-02-12T11:51:55;37.13;;;25.50;;
870;SDS011;422;51.280;7.236;2023-02-12T11:54:27;35.40;;;26.30;;
870;SDS011;422;51.280;7.236;2023-02-12T11:56:56;33.83;;;23.83;;
870;SDS011;422;51.280;7.236;2023-02-12T11:59:28;30.30;;;22.57;;
870;SDS011;422;51.280;7.236;2023-02-12T12:02:00;37.83;;;24.33;;
870;SDS011;422;51.280;7.236;2023-02-12T12:04:39;33.00;;;25.70;;
870;SDS011;422;51.280;7.236;2023-02-12T12:07:09;35.77;;;25.33;;
870;SDS011;422;51.280;7.236;2023-02-12T12:09:43;35.70;;;26.60;;
870;SDS011;422;51.280;7.236;2023-02-12T12:12:15;32.57;;;24.87;;
870;SDS011;422;51.280;7.236;2023-02-12T12:14:49;35.17;;;24.93;;
870;SDS011;422;51.280;7.236;2023-02-12T12:17:39;37.30;;;25.60;;
870;SDS011;422;51.280;7.236;2023-02-12T12:20:29;32.10;;;23.70;;
870;SDS011;422;51.280;7.236;2023-02-12T12:23:02;33.80;;;24.93;;
870;SDS011;422;51.280;7.236;2023-02-12T12:25:36;36.90;;;23.10;;
870;SDS011;422;51.280;7.236;2023-02-12T12:28:12;36.97;;;23.33;;
870;SDS011;422;51.280;7.236;2023-02-12T12:30:56;34.17;;;24.60;;
870;SDS011;422;51.280;7.236;2023-02-12T12:33:40;32.60;;;23.50;;
870;SDS011;422;51.280;7.236;2023-02-12T12:36:36;30.87;;;24.90;;
870;SDS011;422;51.280;7.236;2023-02-12T12:39:33;31.50;;;22.80;;
870;SDS011;422;51.280;7.236;2023-02-12T12:42:10;37.77;;;25.47;;
870;SDS011;422;51.280;7.236;2023-02-12T12:45:04;29.73;;;22.20;;
870;SDS011;422;51.280;7.236;2023-02-12T12:47:46;38.43;;;26.30;;
870;SDS011;422;51.280;7.236;2023-02-12T12:50:33;38.90;;;24.83;;
870;SDS011;422;51.280;7.236;2023-02-12T12:53:24;36.73;;;23.97;;
870;SDS011;422;51.280;7.236;2023-02-12T12:56:04;31.93;;;24.00;;
870;SDS011;422;51.280;7.236;2023-02-12T12:58:43;39.33;;;24.30;;
870;SDS011;422;51.280;7.236;2023-02-12T13:04:31;36.43;;;23.43;;
870;SDS011;422;51.280;7.236;2023-02-12T13:07:20;30.50;;;22.47;;
870;SDS011;422;51.280;7.236;2023-02-12T13:10:02;33.83;;;23.10;;
870;SDS011;422;51.280;7.236;2023-02-12T13:12:42;31.10;;;23.40;;
870;SDS011;422;51.280;7.236;2023-02-12T13:15:18;37.20;;;24.27;;
870;SDS011;422;51.280;7.236;2023-02-12T13:17:54;33.90;;;24.10;;
870;SDS011;422;51.280;7.236;2023-02-12T13:20:30;32.50;;;21.97;;
870;SDS011;422;51.280;7.236;2023-02-12T13:23:08;34.70;;;22.90;;
870;SDS011;422;51.280;7.236;2023-02-12T13:25:42;29.93;;;21.80;;
870;SDS011;422;51.280;7.236;2023-02-12T13:28:18;29.00;;;21.73;;
870;SDS011;422;51.280;7.236;2023-02-12T13:30:51;29.83;;;20.87;;
870;SDS011;422;51.280;7.236;2023-02-12T13:33:22;32.73;;;23.20;;
870;SDS011;422;51.280;7.236;2023-02-12T13:35:53;27.20;;;20.33;;
870;SDS011;422;51.280;7.236;2023-02-12T13:38:26;23.27;;;18.97;;
870;SDS011;422;51.280;7.236;2023-02-12T13:40:57;26.37;;;19.97;;
870;SDS011;422;51.280;7.236;2023-02-12T13:43:35;25.60;;;18.67;;
870;SDS011;422;51.280;7.236;2023-02-12T13:46:17;28.87;;;20.23;;
870;SDS011;422;51.280;7.236;2023-02-12T13:48:54;26.10;;;18.33;;
870;SDS011;422;51.280;7.236;2023-02-12T13:51:30;29.97;;;17.67;;
870;SDS011;422;51.280;7.236;2023-02-12T13:54:13;28.23;;;18.50;;
870;SDS011;422;51.280;7.236;2023-02-12T13:56:50;27.80;;;19.83;;
870;SDS011;422;51.280;7.236;2023-02-12T13:59:40;29.03;;;19.07;;
870;SDS011;422;51.280;7.236;2023-02-12T14:02:25;25.20;;;19.33;;
870;SDS011;422;51.280;7.236;2023-02-12T14:08:00;26.97;;;19.40;;
870;SDS011;422;51.280;7.236;2023-02-12T14:10:32;28.50;;;18.80;;
870;SDS011;422;51.280;7.236;2023-02-12T14:13:14;28.30;;;20.63;;
870;SDS011;422;51.280;7.236;2023-02-12T14:15:46;25.50;;;19.10;;
870;SDS011;422;51.280;7.236;2023-02-12T14:18:23;24.43;;;18.27;;
870;SDS011;422;51.280;7.236;2023-02-12T14:27:17;22.60;;;17.10;;
870;SDS011;422;51.280;7.236;2023-02-12T14:30:02;28.93;;;18.53;;
870;SDS011;422;51.280;7.236;2023-02-12T14:32:58;35.60;;;20.70;;
870;SDS011;422;51.280;7.236;2023-02-12T14:35:47;29.57;;;20.93;;
870;SDS011;422;51.280;7.236;2023-02-12T14:41:27;23.40;;;17.70;;
870;SDS011;422;51.280;7.236;2023-02-12T14:50:34;29.47;;;18.00;;
870;SDS011;422;51.280;7.236;2023-02-12T14:53:25;22.60;;;17.87;;
870;SDS011;422;51.280;7.236;2023-02-12T14:55:56;24.73;;;18.50;;
870;SDS011;422;51.280;7.236;2023-02-12T14:58:24;25.37;;;18.53;;
870;SDS011;422;51.280;7.236;2023-02-12T15:00:55;27.57;;;17.73;;
870;SDS011;422;51.280;7.236;2023-02-12T15:03:26;24.93;;;17.50;;
870;SDS011;422;51.280;7.236;2023-02-12T15:06:02;24.93;;;18.50;;
870;SDS011;422;51.280;7.236;2023-02-12T15:08:39;27.07;;;19.33;;
870;SDS011;422;51.280;7.236;2023-02-12T15:11:22;24.37;;;17.20;;
870;SDS011;422;51.280;7.236;2023-02-12T15:13:56;26.73;;;20.23;;
870;SDS011;422;51.280;7.236;2023-02-12T15:16:32;23.37;;;18.60;;
870;SDS011;422;51.280;7.236;2023-02-12T15:19:11;26.60;;;19.30;;
870;SDS011;422;51.280;7.236;2023-02-12T15:21:55;27.43;;;18.70;;
870;SDS011;422;51.280;7.236;2023-02-12T15:24:24;26.30;;;20.27;;
870;SDS011;422;51.280;7.236;2023-02-12T15:26:52;28.43;;;21.13;;
870;SDS011;422;51.280;7.236;2023-02-12T15:29:22;24.80;;;18.43;;
870;SDS011;422;51.280;7.236;2023-02-12T15:31:52;24.43;;;17.63;;
870;SDS011;422;51.280;7.236;2023-02-12T15:34:21;26.27;;;18.20;;
870;SDS011;422;51.280;7.236;2023-02-12T15:36:50;22.17;;;16.07;;
870;SDS011;422;51.280;7.236;2023-02-12T15:39:21;22.50;;;18.10;;
870;SDS011;422;51.280;7.236;2023-02-12T15:41:50;21.93;;;17.10;;
870;SDS011;422;51.280;7.236;2023-02-12T15:44:27;21.67;;;16.27;;
870;SDS011;422;51.280;7.236;2023-02-12T15:46:57;23.30;;;17.77;;
870;SDS011;422;51.280;7.236;2023-02-12T15:49:28;22.40;;;17.40;;
870;SDS011;422;51.280;7.236;2023-02-12T15:51:58;24.37;;;17.23;;
870;SDS011;422;51.280;7.236;2023-02-12T15:54:30;21.90;;;17.23;;
870;SDS011;422;51.280;7.236;2023-02-12T15:56:58;25.50;;;17.50;;
870;SDS011;422;51.280;7.236;2023-02-12T15:59:26;20.80;;;16.13;;
870;SDS011;422;51.280;7.236;2023-02-12T16:01:55;23.07;;;17.33;;
870;SDS011;422;51.280;7.236;2023-02-12T16:04:25;23.00;;;17.50;;
870;SDS011;422;51.280;7.236;2023-02-12T16:06:55;21.77;;;15.53;;
870;SDS011;422;51.280;7.236;2023-02-12T16:09:25;20.67;;;16.33;;
870;SDS011;422;51.280;7.236;2023-02-12T16:11:57;22.20;;;15.47;;
870;SDS011;422;51.280;7.236;2023-02-12T16:14:26;23.93;;;17.20;;